Time;durP1;ratioP1;P1;durP2;ratioP2;P2;SDS_P1;SDS_P2;PMS_P1;PMS_P2;Temp;Humidity;BMP_temperature;BMP_pressure;BME280_temperature;BME280_humidity;BME280_pressure;Samples;Min_cycle;Max_cycle;Signal;HPM_P1;HPM_P2
2021/11/16 00:01:13;;;;;;;80.28;26.05;;;;;;;-149.78;100.00;50479.28;5062370;28;20034;-64
2021/11/16 00:03:39;;;;;;;83.20;25.42;;;;;;;-149.78;100.00;50475.34;5058730;28;20037;-64
2021/11/16 00:06:05;;;;;;;83.03;27.73;;;;;;;-149.78;100.00;50463.63;5058739;28;20040;-64
2021/11/16 00:08:31;;;;;;;92.65;28.05;;;;;;;-149.78;100.00;50473.41;5059670;28;20362;-64
2021/11/16 00:10:57;;;;;;;87.85;27.23;;;;;;;-149.78;100.00;50491.00;5063522;28;20024;-64
2021/11/16 00:13:23;;;;;;;95.47;29.63;;;;;;;-149.78;100.00;50471.44;5059762;28;20461;-64
2021/11/16 00:15:48;;;;;;;92.15;27.80;;;;;;;-149.78;100.00;50467.53;5059078;28;20048;-64
2021/11/16 00:18:20;;;;;;;82.03;26.88;;;;;;;-149.78;100.00;50475.34;5058557;28;20049;-64
2021/11/16 00:20:46;;;;;;;84.17;28.00;;;;;;;-149.78;100.00;50510.56;5057725;28;20124;-64
2021/11/16 00:23:18;;;;;;;84.50;27.13;;;;;;;-149.78;100.00;50475.34;5064390;28;20277;-64
2021/11/16 00:25:47;;;;;;;80.50;24.23;;;;;;;-149.78;100.00;50469.50;5058044;28;20086;-64
2021/11/16 00:28:13;;;;;;;81.03;26.40;;;;;;;-149.78;100.00;50506.66;5057741;28;20124;-64
2021/11/16 00:30:40;;;;;;;74.28;25.58;;;;;;;-149.78;100.00;50483.19;5064167;28;20086;-64
2021/11/16 00:33:06;;;;;;;72.43;23.50;;;;;;;-149.78;100.00;50475.34;5061673;28;20043;-64
2021/11/16 00:35:37;;;;;;;77.65;25.65;;;;;;;-149.78;100.00;50453.84;5059945;28;20048;-64
2021/11/16 00:38:08;;;;;;;78.10;26.17;;;;;;;-149.78;100.00;50481.22;5061341;28;20086;-64
2021/11/16 00:40:35;;;;;;;77.20;25.58;;;;;;;-149.78;100.00;50479.28;5059933;28;20459;-64
2021/11/16 00:43:03;;;;;;;88.90;27.20;;;;;;;-149.78;100.00;50461.66;5055823;28;20461;-64
2021/11/16 00:45:28;;;;;;;82.63;27.75;;;;;;;-149.78;100.00;50491.00;5057778;28;20376;-64
2021/11/16 00:47:54;;;;;;;88.20;27.98;;;;;;;-149.78;100.00;50491.00;5056307;28;20032;-64
2021/11/16 00:50:21;;;;;;;70.95;26.27;;;;;;;-149.78;100.00;50491.00;5072380;28;20116;-64
2021/11/16 00:52:47;;;;;;;86.22;26.60;;;;;;;-149.78;100.00;50494.91;5067692;28;20420;-64
2021/11/16 00:55:14;;;;;;;90.35;29.50;;;;;;;-149.78;100.00;50473.41;5055320;28;20075;-64
2021/11/16 00:57:40;;;;;;;81.90;27.35;;;;;;;-149.78;100.00;50496.88;5063605;28;20467;-64
2021/11/16 01:00:08;;;;;;;81.38;26.35;;;;;;;-149.78;100.00;50494.91;5072049;28;20043;-64
2021/11/16 01:02:34;;;;;;;87.18;25.42;;;;;;;-149.78;100.00;50477.31;5059045;28;20024;-64
2021/11/16 01:04:59;;;;;;;79.10;24.35;;;;;;;-149.78;100.00;50469.50;5058719;28;20029;-64
2021/11/16 01:07:25;;;;;;;84.63;26.33;;;;;;;-149.78;100.00;50479.28;5059052;28;20377;-64
2021/11/16 01:09:51;;;;;;;75.60;24.23;;;;;;;-149.78;100.00;50491.00;5063430;28;20492;-64
2021/11/16 01:12:17;;;;;;;84.00;25.02;;;;;;;-149.78;100.00;50494.91;5071107;28;20040;-64
2021/11/16 01:14:44;;;;;;;70.22;25.30;;;;;;;-149.78;100.00;50483.19;5067218;28;20090;-64
2021/11/16 01:17:10;;;;;;;79.45;26.33;;;;;;;-149.78;100.00;50459.72;5067874;28;20450;-64
2021/11/16 01:19:36;;;;;;;91.38;26.95;;;;;;;-149.78;100.00;50475.34;5069323;28;20033;-64
2021/11/16 01:22:03;;;;;;;88.72;26.42;;;;;;;-149.78;100.00;50479.28;5067570;28;20032;-64
2021/11/16 01:24:29;;;;;;;71.72;23.33;;;;;;;-149.78;100.00;50506.66;5068800;28;20036;-64
2021/11/16 01:26:55;;;;;;;74.93;23.60;;;;;;;-149.78;100.00;50463.63;5054842;28;20087;-64
2021/11/16 01:29:21;;;;;;;72.82;23.20;;;;;;;-149.78;100.00;50487.09;5056409;28;20032;-64
2021/11/16 01:31:50;;;;;;;77.10;22.27;;;;;;;-149.78;100.00;50498.81;5064139;28;20035;-64
2021/11/16 01:34:23;;;;;;;77.35;23.35;;;;;;;-149.78;100.00;50469.50;5062959;28;20044;-64
2021/11/16 01:36:49;;;;;;;89.38;23.67;;;;;;;-149.78;100.00;50483.19;5062168;28;20060;-64
2021/11/16 01:39:14;;;;;;;89.93;24.90;;;;;;;-149.78;100.00;50463.63;5062608;28;20523;-64
2021/11/16 01:41:40;;;;;;;76.72;23.83;;;;;;;-149.78;100.00;50514.47;5056892;28;20032;-64
2021/11/16 01:44:06;;;;;;;76.68;22.90;;;;;;;-149.78;100.00;50479.28;5070084;28;20059;-64
2021/11/16 01:46:32;;;;;;;69.38;20.70;;;;;;;-149.78;100.00;50479.28;5056880;28;20032;-64
2021/11/16 01:48:58;;;;;;;71.68;22.30;;;;;;;-149.78;100.00;50483.19;5066801;28;20041;-64
2021/11/16 01:51:27;;;;;;;71.28;21.23;;;;;;;-149.78;100.00;50498.81;5069706;28;20036;-64
2021/11/16 01:54:01;;;;;;;75.55;21.05;;;;;;;-149.78;100.00;50483.19;5060071;28;20036;-64
2021/11/16 01:56:29;;;;;;;67.15;20.50;;;;;;;-149.78;100.00;50502.75;5068597;28;20072;-64
2021/11/16 01:58:58;;;;;;;75.85;20.65;;;;;;;-149.78;100.00;50447.97;5071704;28;20037;-64
2021/11/16 02:01:24;;;;;;;64.97;20.05;;;;;;;-149.78;100.00;50449.94;5052887;28;20041;-64
2021/11/16 02:03:49;;;;;;;62.45;19.02;;;;;;;-149.78;100.00;50502.75;5051449;28;20021;-64
2021/11/16 02:06:19;;;;;;;68.07;21.38;;;;;;;-149.78;100.00;50510.56;5052793;28;20037;-64
2021/11/16 02:08:46;;;;;;;70.40;21.95;;;;;;;-149.78;100.00;50508.59;5070399;28;20028;-64
2021/11/16 02:11:12;;;;;;;64.93;19.55;;;;;;;-149.78;100.00;50440.16;5070210;28;20086;-64
2021/11/16 02:13:38;;;;;;;54.97;18.88;;;;;;;-149.78;100.00;50479.28;5068394;28;20380;-64
2021/11/16 02:16:03;;;;;;;62.17;18.88;;;;;;;-149.78;100.00;50506.66;5062745;28;20135;-64
2021/11/16 02:18:29;;;;;;;58.58;20.10;;;;;;;-149.78;100.00;50455.81;5051306;28;20036;-64
2021/11/16 02:20:55;;;;;;;60.75;19.27;;;;;;;-149.78;100.00;50465.56;5065947;28;20037;-64
2021/11/16 02:23:21;;;;;;;57.92;19.33;;;;;;;-149.78;100.00;50477.31;5053206;28;20036;-64
2021/11/16 02:25:49;;;;;;;67.88;19.63;;;;;;;-149.78;100.00;50477.31;5062094;28;20673;-64
2021/11/16 02:28:17;;;;;;;65.00;20.90;;;;;;;-149.78;100.00;50475.34;5051850;28;20047;-64
2021/11/16 02:30:43;;;;;;;66.20;20.52;;;;;;;-149.78;100.00;50498.81;5062347;28;20028;-64
2021/11/16 02:33:08;;;;;;;67.13;21.90;;;;;;;-149.78;100.00;50494.91;5057250;28;20037;-64
2021/11/16 02:35:34;;;;;;;66.50;20.85;;;;;;;-149.78;100.00;50471.44;5054669;28;20094;-64
2021/11/16 02:38:00;;;;;;;67.22;20.67;;;;;;;-149.78;100.00;50516.44;5060806;28;20033;-64
2021/11/16 02:40:27;;;;;;;68.25;20.27;;;;;;;-149.78;100.00;50491.00;5061025;28;20426;-64
2021/11/16 02:42:53;;;;;;;67.55;21.15;;;;;;;-149.78;100.00;50498.81;5055787;28;20396;-64
2021/11/16 02:45:21;;;;;;;75.00;22.35;;;;;;;-149.78;100.00;50483.19;5061865;28;20036;-64
2021/11/16 02:47:47;;;;;;;69.78;20.55;;;;;;;-149.78;100.00;50496.88;5058511;28;20495;-64
2021/11/16 02:50:13;;;;;;;73.72;22.45;;;;;;;-149.78;100.00;50479.28;5064546;28;20024;-64
2021/11/16 02:52:39;;;;;;;82.97;23.00;;;;;;;-149.78;100.00;50475.34;5063334;28;20041;-64
2021/11/16 02:55:08;;;;;;;74.47;22.45;;;;;;;-149.78;100.00;50502.75;5062342;28;20051;-64
2021/11/16 02:57:34;;;;;;;74.85;23.52;;;;;;;-149.78;100.00;50487.09;5053490;28;20525;-64
2021/11/16 03:00:09;;;;;;;81.25;24.05;;;;;;;-149.78;100.00;50506.66;5064472;28;20028;-64
2021/11/16 03:02:35;;;;;;;74.40;22.95;;;;;;;-149.78;100.00;50498.81;5070109;28;20025;-64
2021/11/16 03:05:01;;;;;;;79.85;23.92;;;;;;;-149.78;100.00;50440.16;5063386;28;20039;-64
2021/11/16 03:07:44;;;;;;;76.82;23.05;;;;;;;-149.78;100.00;50463.63;5070535;28;20028;-64
2021/11/16 03:10:11;;;;;;;71.82;21.45;;;;;;;-149.78;100.00;50440.16;5073807;28;20028;-64
2021/11/16 03:12:37;;;;;;;72.38;21.73;;;;;;;-149.78;100.00;50483.19;5065877;28;20036;-64
2021/11/16 03:15:03;;;;;;;66.90;21.20;;;;;;;-149.78;100.00;50467.53;5059730;28;20036;-64
2021/11/16 03:17:29;;;;;;;72.65;23.05;;;;;;;-149.78;100.00;50459.72;5058800;28;20056;-64
2021/11/16 03:19:55;;;;;;;74.97;23.13;;;;;;;-149.78;100.00;50451.88;5066708;28;20535;-64
2021/11/16 03:22:25;;;;;;;71.07;21.27;;;;;;;-149.78;100.00;50475.34;5055305;28;20060;-64
2021/11/16 03:24:51;;;;;;;72.00;21.77;;;;;;;-149.78;100.00;50479.28;5064852;28;20078;-64
2021/11/16 03:27:19;;;;;;;67.38;22.52;;;;;;;-149.78;100.00;50500.78;5053798;28;20507;-64
2021/11/16 03:29:47;;;;;;;72.13;21.60;;;;;;;-149.78;100.00;50491.00;5063651;28;20032;-64
2021/11/16 03:32:17;;;;;;;58.58;19.48;;;;;;;-149.78;100.00;50491.00;5053760;28;20049;-64
2021/11/16 03:34:47;;;;;;;68.97;21.02;;;;;;;-149.78;100.00;50471.44;5063083;28;20025;-64
2021/11/16 03:37:17;;;;;;;;;;;;;;;-149.78;100.00;50487.09;5075236;28;20040;-64
2021/11/16 03:39:43;;;;;;;63.83;19.52;;;;;;;-149.78;100.00;50463.63;5060566;28;19959;-64
2021/11/16 03:42:09;;;;;;;56.53;19.13;;;;;;;-149.78;100.00;50502.75;5066156;28;20037;-64
2021/11/16 03:44:35;;;;;;;56.90;19.75;;;;;;;-149.78;100.00;50475.34;5074418;28;20036;-64
2021/11/16 03:47:02;;;;;;;59.47;18.60;;;;;;;-149.78;100.00;50483.19;5074843;28;20038;-64
2021/11/16 03:49:28;;;;;;;60.15;18.98;;;;;;;-149.78;100.00;50459.72;5072357;28;20527;-64
2021/11/16 03:51:54;;;;;;;61.20;19.25;;;;;;;-149.78;100.00;50491.00;5073272;28;20116;-64
2021/11/16 03:54:20;;;;;;;54.38;18.02;;;;;;;-149.78;100.00;50471.44;5073046;28;20089;-64
2021/11/16 03:56:47;;;;;;;52.92;17.92;;;;;;;-149.78;100.00;50457.75;5059454;28;20368;-64
2021/11/16 03:59:13;;;;;;;56.08;18.48;;;;;;;-149.78;100.00;50487.09;5069421;28;20040;-64
2021/11/16 04:01:39;;;;;;;46.70;16.60;;;;;;;-149.78;100.00;50514.47;5056084;28;20064;-64
2021/11/16 04:04:05;;;;;;;50.70;16.52;;;;;;;-149.78;100.00;50451.88;5054736;28;20394;-64
2021/11/16 04:06:31;;;;;;;47.72;17.58;;;;;;;-149.78;100.00;50477.31;5056795;28;20025;-64
2021/11/16 04:08:58;;;;;;;47.03;16.90;;;;;;;-149.78;100.00;50491.00;5055315;28;20090;-64
2021/11/16 04:11:26;;;;;;;45.80;16.73;;;;;;;-149.78;100.00;50520.34;5065869;28;20093;-64
2021/11/16 04:13:52;;;;;;;46.03;17.20;;;;;;;-149.78;100.00;50489.03;5055050;28;20044;-64
2021/11/16 04:16:21;;;;;;;46.50;17.45;;;;;;;-149.78;100.00;50481.22;5056638;28;20045;-64
2021/11/16 04:18:47;;;;;;;43.33;16.35;;;;;;;-149.78;100.00;50479.28;5053309;28;20036;-64
2021/11/16 04:21:12;;;;;;;46.42;15.88;;;;;;;-149.78;100.00;50510.56;5071609;28;20071;-64
2021/11/16 04:23:38;;;;;;;47.40;15.52;;;;;;;-149.78;100.00;50483.19;5070921;28;20033;-64
2021/11/16 04:26:03;;;;;;;41.63;15.10;;;;;;;-149.78;100.00;50487.09;5072524;28;20063;-64
2021/11/16 04:28:29;;;;;;;41.05;15.15;;;;;;;-149.78;100.00;50489.03;5056858;28;20037;-64
2021/11/16 04:30:59;;;;;;;49.00;15.90;;;;;;;-149.78;100.00;50496.88;5072040;28;20047;-64
2021/11/16 04:33:26;;;;;;;46.05;15.95;;;;;;;-149.78;100.00;50479.28;5068697;28;20517;-64
2021/11/16 04:35:52;;;;;;;42.35;15.00;;;;;;;-149.78;100.00;50483.19;5067265;28;20032;-64
2021/11/16 04:38:19;;;;;;;39.88;14.60;;;;;;;-149.78;100.00;50502.75;5073136;28;20043;-64
2021/11/16 04:40:50;;;;;;;36.67;14.45;;;;;;;-149.78;100.00;50498.81;5064161;28;20138;-64
2021/11/16 04:43:19;;;;;;;43.30;16.40;;;;;;;-149.78;100.00;50514.47;5053778;28;20040;-64
2021/11/16 04:45:50;;;;;;;39.08;14.52;;;;;;;-149.78;100.00;50467.53;5051051;28;20037;-64
2021/11/16 04:48:59;;;;;;;35.40;13.13;;;;;;;-149.78;100.00;50475.34;5035714;28;20037;-64
2021/11/16 04:51:57;;;;;;;34.60;12.30;;;;;;;-149.78;100.00;50483.19;5053534;28;20063;-64
2021/11/16 05:04:54;;;;;;;22.35;9.63;;;;;;;-149.78;100.00;50502.75;5062502;28;20040;-64
2021/11/16 05:07:22;;;;;;;19.48;7.93;;;;;;;-149.78;100.00;50491.00;5062310;28;20119;-64
2021/11/16 05:09:50;;;;;;;22.50;8.43;;;;;;;-149.78;100.00;50514.47;5061849;28;20043;-64
2021/11/16 05:12:17;;;;;;;18.38;8.38;;;;;;;-149.78;100.00;50518.38;5058255;28;20037;-64
2021/11/16 05:14:43;;;;;;;18.70;7.50;;;;;;;-149.78;100.00;50506.66;5057383;28;20510;-64
2021/11/16 05:17:09;;;;;;;22.13;8.63;;;;;;;-149.78;100.00;50502.75;5068528;28;20036;-64
2021/11/16 05:19:35;;;;;;;19.92;8.80;;;;;;;-149.78;100.00;50451.88;5064647;28;20056;-64
2021/11/16 05:22:01;;;;;;;22.65;8.68;;;;;;;-149.78;100.00;50510.56;5059568;28;20037;-64
2021/11/16 05:24:27;;;;;;;22.75;9.25;;;;;;;-149.78;100.00;50467.53;5061118;28;20024;-64
2021/11/16 05:26:53;;;;;;;22.23;8.63;;;;;;;-149.78;100.00;50494.91;5060633;28;20120;-64
2021/11/16 05:29:19;;;;;;;24.38;9.68;;;;;;;-149.78;100.00;50494.91;5066739;28;20405;-64
2021/11/16 05:31:45;;;;;;;25.45;8.82;;;;;;;-149.78;100.00;50492.97;5058085;28;20079;-64
2021/11/16 05:34:11;;;;;;;25.92;10.77;;;;;;;-149.78;100.00;50494.91;5067625;28;20036;-64
2021/11/16 05:36:37;;;;;;;36.22;12.73;;;;;;;-149.78;100.00;50479.28;5062247;28;20078;-64
2021/11/16 05:39:04;;;;;;;41.10;14.25;;;;;;;-149.78;100.00;50491.00;5065710;28;20047;-64
2021/11/16 05:41:29;;;;;;;44.67;15.18;;;;;;;-149.78;100.00;50487.09;5055345;28;20033;-64
2021/11/16 05:43:55;;;;;;;51.33;16.25;;;;;;;-149.78;100.00;50514.47;5053936;28;20436;-64
2021/11/16 05:46:22;;;;;;;45.40;15.88;;;;;;;-149.78;100.00;50491.00;5062558;28;20029;-64
2021/11/16 05:48:49;;;;;;;40.00;14.48;;;;;;;-149.78;100.00;50475.34;5063867;28;20028;-64
2021/11/16 05:51:15;;;;;;;40.78;14.85;;;;;;;-149.78;100.00;50471.44;5052493;28;20043;-64
2021/11/16 05:53:44;;;;;;;42.33;14.70;;;;;;;-149.78;100.00;50514.47;5064217;28;20071;-64
2021/11/16 05:56:11;;;;;;;35.92;13.07;;;;;;;-149.78;100.00;50514.47;5067264;28;20116;-64
2021/11/16 05:58:40;;;;;;;40.10;14.23;;;;;;;-149.78;100.00;50475.34;5071813;28;20023;-64
2021/11/16 06:01:06;;;;;;;41.72;13.98;;;;;;;-149.78;100.00;50463.63;5051230;28;20059;-64
2021/11/16 06:03:32;;;;;;;40.33;14.50;;;;;;;-149.78;100.00;50483.19;5061798;28;20376;-64
2021/11/16 06:05:58;;;;;;;42.58;15.60;;;;;;;-149.78;100.00;50463.63;5061973;28;20045;-63
2021/11/16 06:08:26;;;;;;;47.08;16.92;;;;;;;-149.78;100.00;50518.38;5053974;28;20495;-64
2021/11/16 06:10:54;;;;;;;58.28;19.75;;;;;;;-149.78;100.00;50502.75;5061752;28;20044;-64
2021/11/16 06:13:20;;;;;;;58.42;19.35;;;;;;;-149.78;100.00;50491.00;5064671;28;20059;-64
2021/11/16 06:15:46;;;;;;;63.08;20.70;;;;;;;-149.78;100.00;50481.22;5068641;28;20482;-64
2021/11/16 06:18:12;;;;;;;56.63;19.98;;;;;;;-149.78;100.00;50496.88;5069743;28;20033;-63
2021/11/16 06:20:40;;;;;;;59.95;21.73;;;;;;;-149.78;100.00;50498.81;5056887;28;20108;-64
2021/11/16 06:23:09;;;;;;;58.33;20.38;;;;;;;-149.78;100.00;50502.75;5069495;28;20464;-64
2021/11/16 06:25:35;;;;;;;65.68;21.85;;;;;;;-149.78;100.00;50494.91;5073633;28;20387;-64
2021/11/16 06:28:01;;;;;;;64.05;22.38;;;;;;;-149.78;100.00;50459.72;5070709;28;20396;-64
2021/11/16 06:30:26;;;;;;;60.13;21.98;;;;;;;-149.78;100.00;50485.13;5073190;28;20078;-64
2021/11/16 06:32:52;;;;;;;66.40;22.67;;;;;;;-149.78;100.00;50483.19;5072813;28;20376;-64
2021/11/16 06:35:19;;;;;;;57.67;21.42;;;;;;;-149.78;100.00;50451.88;5059847;28;20487;-64
2021/11/16 06:37:47;;;;;;;70.53;22.60;;;;;;;-149.78;100.00;50494.91;5073312;28;20040;-64
2021/11/16 06:40:13;;;;;;;65.00;22.20;;;;;;;-149.78;100.00;50483.19;5068665;28;20444;-64
2021/11/16 06:42:39;;;;;;;62.45;21.15;;;;;;;-149.78;100.00;50506.66;5071810;28;20538;-68
2021/11/16 06:45:05;;;;;;;61.17;20.27;;;;;;;-149.78;100.00;50444.06;5070274;28;20040;-68
2021/11/16 06:47:31;;;;;;;61.28;20.63;;;;;;;-149.78;100.00;50498.81;5071617;28;20042;-68
2021/11/16 06:49:59;;;;;;;62.67;20.83;;;;;;;-149.78;100.00;50487.09;5073529;28;20503;-68
2021/11/16 06:52:27;;;;;;;59.80;20.25;;;;;;;-149.78;100.00;50479.28;5071736;28;20396;-67
2021/11/16 06:54:53;;;;;;;59.92;20.77;;;;;;;-149.78;100.00;50498.81;5070896;28;20418;-68
2021/11/16 06:57:19;;;;;;;56.67;20.13;;;;;;;-149.78;100.00;50530.13;5070899;28;20043;-68
2021/11/16 06:59:44;;;;;;;49.28;18.05;;;;;;;-149.78;100.00;50477.31;5071147;28;20090;-68
2021/11/16 07:02:10;;;;;;;52.03;18.75;;;;;;;-149.78;100.00;50494.91;5071587;28;20039;-67
2021/11/16 07:04:38;;;;;;;47.90;18.80;;;;;;;-149.78;100.00;50498.81;5070425;28;20441;-69
2021/11/16 07:07:05;;;;;;;50.80;17.38;;;;;;;-149.78;100.00;50498.81;5072930;28;20028;-67
2021/11/16 07:09:35;;;;;;;48.60;18.20;;;;;;;-149.78;100.00;50494.91;5069424;28;20032;-67
2021/11/16 07:12:02;;;;;;;49.58;18.77;;;;;;;-149.78;100.00;50475.34;5070150;28;20445;-67
2021/11/16 07:14:39;;;;;;;45.90;18.02;;;;;;;-149.78;100.00;50502.75;5069439;28;20033;-66
2021/11/16 07:17:11;;;;;;;58.10;18.52;;;;;;;-149.78;100.00;50475.34;5071476;28;20047;-66
2021/11/16 07:19:42;;;;;;;51.65;18.27;;;;;;;-149.78;100.00;50498.81;5037907;28;20037;-66
2021/11/16 07:22:12;;;;;;;50.40;17.80;;;;;;;-149.78;100.00;50508.59;5071824;28;20029;-66
2021/11/16 07:25:16;;;;;;;44.55;17.35;;;;;;;-149.78;100.00;50492.97;5068203;28;20159;-68
2021/11/16 07:27:47;;;;;;;49.65;18.30;;;;;;;-149.78;100.00;50487.09;5056338;28;20048;-66
2021/11/16 07:30:24;;;;;;;47.33;18.60;;;;;;;-149.78;100.00;50496.88;5070155;28;20036;-67
2021/11/16 07:32:51;;;;;;;47.00;17.88;;;;;;;-149.78;100.00;50534.03;5067726;28;20537;-65
2021/11/16 07:35:21;;;;;;;46.05;16.77;;;;;;;-149.78;100.00;50491.00;5071718;28;20043;-65
2021/11/16 07:37:48;;;;;;;41.00;16.60;;;;;;;-149.78;100.00;50491.00;5071147;28;20036;-64
2021/11/16 07:40:20;;;;;;;47.50;17.50;;;;;;;-149.78;100.00;50494.91;5071335;28;20040;-63
2021/11/16 07:42:52;;;;;;;47.25;16.42;;;;;;;-149.78;100.00;50487.09;5062234;28;20103;-63
2021/11/16 07:45:37;;;;;;;47.90;17.80;;;;;;;-149.78;100.00;50487.09;5066120;28;20047;-63
2021/11/16 07:48:06;;;;;;;47.15;17.42;;;;;;;-149.78;100.00;50522.28;5051081;28;20461;-67
2021/11/16 07:50:31;;;;;;;42.28;16.63;;;;;;;-149.78;100.00;50485.13;5067785;28;20028;-63
2021/11/16 07:53:26;;;;;;;39.38;15.23;;;;;;;-149.78;100.00;50479.28;5070274;28;20032;-63
2021/11/16 07:55:52;;;;;;;40.47;14.68;;;;;;;-149.78;100.00;50514.47;5047901;28;20052;-64
2021/11/16 07:58:20;;;;;;;38.05;14.48;;;;;;;-149.78;100.00;50510.56;5070593;28;20066;-63
2021/11/16 08:00:48;;;;;;;36.20;13.68;;;;;;;-149.78;100.00;50502.75;5066222;28;20050;-63
2021/11/16 08:03:21;;;;;;;39.13;14.18;;;;;;;-149.78;100.00;50534.03;5065777;28;20040;-64
2021/11/16 08:06:09;;;;;;;32.63;13.00;;;;;;;-149.78;100.00;50485.13;5056710;28;20050;-65
2021/11/16 08:14:08;;;;;;;38.55;11.98;;;;;;;-149.78;100.00;50471.44;5062896;28;20035;-63
2021/11/16 08:16:57;;;;;;;38.53;12.32;;;;;;;-149.78;100.00;50483.19;5069928;28;20025;-64
2021/11/16 08:19:27;;;;;;;31.75;11.57;;;;;;;-149.78;100.00;50498.81;5068368;28;20027;-64
2021/11/16 08:21:59;;;;;;;29.05;11.70;;;;;;;-149.78;100.00;50473.41;5067907;28;20464;-64
2021/11/16 08:24:31;;;;;;;22.80;10.15;;;;;;;-149.78;100.00;50508.59;5069220;28;20086;-64
2021/11/16 08:26:59;;;;;;;28.20;11.57;;;;;;;-149.78;100.00;50506.66;5062811;28;20029;-65
2021/11/16 08:29:34;;;;;;;29.52;12.55;;;;;;;-149.78;100.00;50463.63;5060793;28;20028;-64
2021/11/16 08:32:11;;;;;;;26.20;11.45;;;;;;;-149.78;100.00;50487.09;5055247;28;20051;-63
2021/11/16 08:34:41;;;;;;;30.00;11.90;;;;;;;-149.78;100.00;50494.91;5067640;28;20032;-64
2021/11/16 08:37:09;;;;;;;30.17;11.73;;;;;;;-149.78;100.00;50471.44;5057203;28;20090;-64
2021/11/16 08:40:06;;;;;;;30.10;11.55;;;;;;;-149.78;100.00;50483.19;5054918;28;20037;-64
2021/11/16 08:42:35;;;;;;;31.63;12.38;;;;;;;-149.78;100.00;50485.13;5043168;28;20032;-64
2021/11/16 08:45:03;;;;;;;29.90;11.55;;;;;;;-149.78;100.00;50492.97;5062069;28;20037;-64
2021/11/16 08:47:36;;;;;;;26.10;11.60;;;;;;;-149.78;100.00;50469.50;5061766;28;20605;-64
2021/11/16 08:50:05;;;;;;;32.33;12.80;;;;;;;-149.78;100.00;50504.69;5054824;28;20119;-64
2021/11/16 08:52:32;;;;;;;29.38;12.20;;;;;;;-149.78;100.00;50473.41;5058375;28;20053;-64
2021/11/16 08:54:58;;;;;;;28.33;12.23;;;;;;;-149.78;100.00;50494.91;5063952;28;20033;-64
2021/11/16 08:57:25;;;;;;;28.30;12.05;;;;;;;-149.78;100.00;50506.66;5054522;28;20642;-64
2021/11/16 08:59:51;;;;;;;29.75;12.32;;;;;;;-149.78;100.00;50491.00;5063199;28;20064;-64
2021/11/16 09:02:19;;;;;;;27.92;12.30;;;;;;;-149.78;100.00;50487.09;5070069;28;20078;-64
2021/11/16 09:04:44;;;;;;;36.72;13.80;;;;;;;-149.78;100.00;50494.91;5064321;28;20369;-64
2021/11/16 09:07:31;;;;;;;25.77;11.60;;;;;;;-149.78;100.00;50487.09;5060146;28;20039;-65
2021/11/16 09:10:10;;;;;;;27.67;11.77;;;;;;;-149.78;100.00;50469.50;5066274;28;20484;-64
2021/11/16 09:12:48;;;;;;;31.00;11.88;;;;;;;-149.78;100.00;50483.19;5061197;28;20021;-64
2021/11/16 09:15:22;;;;;;;41.08;14.45;;;;;;;-149.78;100.00;50526.22;5067899;28;20488;-64
2021/11/16 09:17:48;;;;;;;30.80;12.60;;;;;;;-149.78;100.00;50530.13;5063269;28;20025;-63
2021/11/16 09:20:27;;;;;;;31.40;13.18;;;;;;;-149.78;100.00;50491.00;5066964;28;20118;-64
2021/11/16 09:22:55;;;;;;;25.08;12.05;;;;;;;-149.78;100.00;50483.19;5067226;28;20123;-64
2021/11/16 09:25:31;;;;;;;28.75;12.07;;;;;;;-149.78;100.00;50506.66;5060642;28;20037;-64
2021/11/16 09:28:14;;;;;;;35.03;12.57;;;;;;;-149.78;100.00;50471.44;5062150;28;20119;-63
2021/11/16 09:30:44;;;;;;;29.52;12.35;;;;;;;-149.78;100.00;50469.50;5068684;28;20119;-63
2021/11/16 09:33:20;;;;;;;28.35;12.07;;;;;;;-149.78;100.00;50485.13;5065221;28;20045;-64
2021/11/16 09:36:01;;;;;;;32.10;13.30;;;;;;;-149.78;100.00;50485.13;5062704;28;20074;-64
2021/11/16 09:38:50;;;;;;;29.57;13.23;;;;;;;-149.78;100.00;50498.81;5067383;28;20052;-64
2021/11/16 09:41:28;;;;;;;29.25;12.73;;;;;;;-149.78;100.00;50453.84;5061554;28;20484;-64
2021/11/16 09:44:05;;;;;;;25.25;11.30;;;;;;;-149.78;100.00;50459.72;5066385;28;20119;-64
2021/11/16 09:46:32;;;;;;;27.50;12.07;;;;;;;-149.78;100.00;50455.81;5057346;28;20464;-64
2021/11/16 09:49:03;;;;;;;27.52;11.32;;;;;;;-149.78;100.00;50496.88;5065168;28;20083;-64
2021/11/16 09:51:29;;;;;;;46.20;13.73;;;;;;;-149.78;100.00;50506.66;5065346;28;20028;-66
2021/11/16 09:54:06;;;;;;;30.15;12.07;;;;;;;-149.78;100.00;50477.31;5068568;28;20025;-64
2021/11/16 09:56:34;;;;;;;26.20;11.32;;;;;;;-149.78;100.00;50479.28;5055313;28;20032;-64
2021/11/16 09:59:00;;;;;;;35.53;12.48;;;;;;;-149.78;100.00;50471.44;5057349;28;20036;-64
2021/11/16 10:01:32;;;;;;;29.98;11.77;;;;;;;-149.78;100.00;50447.97;5057995;28;20376;-64
2021/11/16 10:04:09;;;;;;;35.17;11.32;;;;;;;-149.78;100.00;50471.44;5057371;28;20028;-64
2021/11/16 10:06:35;;;;;;;28.40;11.68;;;;;;;-149.78;100.00;50469.50;5068806;28;20468;-63
2021/11/16 10:09:04;;;;;;;29.02;11.95;;;;;;;-149.78;100.00;50494.91;5065142;28;20037;-63
2021/11/16 10:11:31;;;;;;;27.50;11.27;;;;;;;-149.78;100.00;50459.72;5067231;28;20074;-63
2021/11/16 10:13:58;;;;;;;27.65;11.25;;;;;;;-149.78;100.00;50483.19;5067936;28;20072;-64
2021/11/16 10:16:23;;;;;;;23.92;11.27;;;;;;;-149.78;100.00;50453.84;5064419;28;20041;-64
2021/11/16 10:18:49;;;;;;;22.92;10.77;;;;;;;-149.78;100.00;50461.66;5067596;28;20032;-64
2021/11/16 10:21:15;;;;;;;22.60;9.70;;;;;;;-149.78;100.00;50447.97;5054417;28;20567;-64
2021/11/16 10:23:47;;;;;;;23.98;10.90;;;;;;;-149.78;100.00;50471.44;5060617;28;20044;-64
2021/11/16 10:26:14;;;;;;;24.60;9.82;;;;;;;-149.78;100.00;50444.06;5071000;28;20033;-64
2021/11/16 10:28:47;;;;;;;21.98;10.10;;;;;;;-149.78;100.00;50457.75;5070494;28;20117;-64
2021/11/16 10:31:15;;;;;;;21.88;9.52;;;;;;;-149.78;100.00;50455.81;5064828;28;20041;-64
2021/11/16 10:33:49;;;;;;;27.55;10.55;;;;;;;-149.78;100.00;50483.19;5065041;28;20135;-64
2021/11/16 10:36:17;;;;;;;24.15;9.55;;;;;;;-149.78;100.00;50447.97;5067096;28;20050;-64
2021/11/16 10:38:45;;;;;;;21.27;8.88;;;;;;;-149.78;100.00;50463.63;5064524;28;20032;-64
2021/11/16 10:41:17;;;;;;;20.48;9.23;;;;;;;-149.78;100.00;50424.50;5064648;28;20047;-64
2021/11/16 10:44:10;;;;;;;21.55;8.38;;;;;;;-149.78;100.00;50436.25;5058133;28;20051;-63
2021/11/16 10:46:44;;;;;;;22.05;8.85;;;;;;;-149.78;100.00;50467.53;5064615;28;20428;-64
2021/11/16 10:49:16;;;;;;;20.83;8.75;;;;;;;-149.78;100.00;50471.44;5064823;28;20029;-64
2021/11/16 10:51:45;;;;;;;19.33;8.68;;;;;;;-149.78;100.00;50463.63;5059737;28;20032;-64
2021/11/16 10:54:12;;;;;;;20.35;8.27;;;;;;;-149.78;100.00;50471.44;5065387;28;20116;-64
2021/11/16 10:56:39;;;;;;;20.85;7.97;;;;;;;-149.78;100.00;50471.44;5067769;28;20120;-64
2021/11/16 10:59:13;;;;;;;21.92;8.43;;;;;;;-149.78;100.00;50428.41;5068185;28;20032;-64
2021/11/16 11:01:46;;;;;;;18.70;8.23;;;;;;;-149.78;100.00;50479.28;5064912;28;20060;-64
2021/11/16 11:04:15;;;;;;;20.23;8.13;;;;;;;-149.78;100.00;50479.28;5058729;28;20029;-64
2021/11/16 11:06:43;;;;;;;21.23;8.45;;;;;;;-149.78;100.00;50440.16;5063921;28;20460;-64
2021/11/16 11:09:10;;;;;;;18.38;7.65;;;;;;;-149.78;100.00;50461.66;5068852;28;20044;-64
2021/11/16 11:11:38;;;;;;;20.63;8.23;;;;;;;-149.78;100.00;50463.63;5070843;28;20056;-64
2021/11/16 11:14:35;;;;;;;20.52;8.32;;;;;;;-149.78;100.00;50463.63;5070889;28;20033;-64
2021/11/16 11:17:07;;;;;;;17.42;7.45;;;;;;;-149.78;100.00;50481.22;5051906;28;20048;-64
2021/11/16 11:19:39;;;;;;;18.27;7.60;;;;;;;-149.78;100.00;50451.88;5059475;28;20040;-64